sensor_id;sensor_type;location;lat;lon;timestamp;P1;durP1;ratioP1;P2;durP2;ratioP2
7831;SDS011;3961;42.058;25.586;2022-11-15T00:02:07;75.00;;;33.80;;
7831;SDS011;3961;42.058;25.586;2022-11-15T00:04:33;86.73;;;36.37;;
7831;SDS011;3961;42.058;25.586;2022-11-15T00:06:59;83.77;;;35.80;;
7831;SDS011;3961;42.058;25.586;2022-11-15T00:09:24;86.10;;;35.60;;
7831;SDS011;3961;42.058;25.586;2022-11-15T00:11:50;81.73;;;35.23;;
7831;SDS011;3961;42.058;25.586;2022-11-15T00:14:16;88.53;;;36.37;;
7831;SDS011;3961;42.058;25.586;2022-11-15T00:16:42;98.93;;;37.40;;
7831;SDS011;3961;42.058;25.586;2022-11-15T00:19:07;82.67;;;35.27;;
7831;SDS011;3961;42.058;25.586;2022-11-15T00:21:33;78.80;;;35.53;;
7831;SDS011;3961;42.058;25.586;2022-11-15T00:23:58;97.77;;;40.37;;
7831;SDS011;3961;42.058;25.586;2022-11-15T00:26:24;94.93;;;36.90;;
7831;SDS011;3961;42.058;25.586;2022-11-15T00:28:51;101.83;;;37.20;;
7831;SDS011;3961;42.058;25.586;2022-11-15T00:31:17;93.57;;;38.43;;
7831;SDS011;3961;42.058;25.586;2022-11-15T00:33:43;105.97;;;41.20;;
7831;SDS011;3961;42.058;25.586;2022-11-15T00:36:09;106.17;;;40.23;;
7831;SDS011;3961;42.058;25.586;2022-11-15T00:38:36;118.17;;;41.40;;
7831;SDS011;3961;42.058;25.586;2022-11-15T00:41:04;115.00;;;40.63;;
7831;SDS011;3961;42.058;25.586;2022-11-15T00:43:30;100.53;;;39.87;;
7831;SDS011;3961;42.058;25.586;2022-11-15T00:45:56;114.40;;;38.77;;
7831;SDS011;3961;42.058;25.586;2022-11-15T00:48:22;106.37;;;39.73;;
7831;SDS011;3961;42.058;25.586;2022-11-15T00:50:48;98.03;;;37.60;;
7831;SDS011;3961;42.058;25.586;2022-11-15T00:53:14;90.07;;;38.60;;
7831;SDS011;3961;42.058;25.586;2022-11-15T00:55:40;106.70;;;38.33;;
7831;SDS011;3961;42.058;25.586;2022-11-15T00:58:05;99.10;;;39.80;;
7831;SDS011;3961;42.058;25.586;2022-11-15T01:00:31;118.67;;;40.90;;
7831;SDS011;3961;42.058;25.586;2022-11-15T01:02:56;90.70;;;37.67;;
7831;SDS011;3961;42.058;25.586;2022-11-15T01:05:22;104.17;;;39.60;;
7831;SDS011;3961;42.058;25.586;2022-11-15T01:07:51;123.87;;;40.17;;
7831;SDS011;3961;42.058;25.586;2022-11-15T01:10:17;114.87;;;39.43;;
7831;SDS011;3961;42.058;25.586;2022-11-15T01:12:43;102.47;;;40.13;;
7831;SDS011;3961;42.058;25.586;2022-11-15T01:15:08;99.63;;;37.87;;
7831;SDS011;3961;42.058;25.586;2022-11-15T01:17:34;95.70;;;40.10;;
7831;SDS011;3961;42.058;25.586;2022-11-15T01:20:00;96.90;;;38.77;;
7831;SDS011;3961;42.058;25.586;2022-11-15T01:22:25;106.13;;;40.00;;
7831;SDS011;3961;42.058;25.586;2022-11-15T01:24:51;103.40;;;41.67;;
7831;SDS011;3961;42.058;25.586;2022-11-15T01:27:17;92.73;;;39.60;;
7831;SDS011;3961;42.058;25.586;2022-11-15T01:29:43;94.13;;;37.63;;
7831;SDS011;3961;42.058;25.586;2022-11-15T01:32:08;91.53;;;39.57;;
7831;SDS011;3961;42.058;25.586;2022-11-15T01:34:34;91.73;;;39.13;;
7831;SDS011;3961;42.058;25.586;2022-11-15T01:36:59;95.10;;;37.93;;
7831;SDS011;3961;42.058;25.586;2022-11-15T01:39:25;113.70;;;38.87;;
7831;SDS011;3961;42.058;25.586;2022-11-15T01:41:51;114.10;;;38.27;;
7831;SDS011;3961;42.058;25.586;2022-11-15T01:47:06;115.87;;;41.03;;
7831;SDS011;3961;42.058;25.586;2022-11-15T01:49:37;102.83;;;39.30;;
7831;SDS011;3961;42.058;25.586;2022-11-15T01:52:06;109.40;;;39.93;;
7831;SDS011;3961;42.058;25.586;2022-11-15T01:54:35;113.63;;;36.97;;
7831;SDS011;3961;42.058;25.586;2022-11-15T01:57:04;105.00;;;37.77;;
7831;SDS011;3961;42.058;25.586;2022-11-15T01:59:33;90.00;;;38.93;;
7831;SDS011;3961;42.058;25.586;2022-11-15T02:01:59;91.33;;;37.80;;
7831;SDS011;3961;42.058;25.586;2022-11-15T02:04:26;97.53;;;38.60;;
7831;SDS011;3961;42.058;25.586;2022-11-15T02:06:54;91.83;;;38.67;;
7831;SDS011;3961;42.058;25.586;2022-11-15T02:09:20;98.23;;;39.57;;
7831;SDS011;3961;42.058;25.586;2022-11-15T02:11:46;149.37;;;40.20;;
7831;SDS011;3961;42.058;25.586;2022-11-15T02:14:14;90.40;;;37.83;;
7831;SDS011;3961;42.058;25.586;2022-11-15T02:21:41;99.33;;;36.40;;
7831;SDS011;3961;42.058;25.586;2022-11-15T02:32:48;104.13;;;37.03;;
7831;SDS011;3961;42.058;25.586;2022-11-15T02:35:27;103.43;;;34.27;;
7831;SDS011;3961;42.058;25.586;2022-11-15T02:37:59;102.10;;;34.40;;
7831;SDS011;3961;42.058;25.586;2022-11-15T02:43:32;90.23;;;34.37;;
7831;SDS011;3961;42.058;25.586;2022-11-15T02:49:12;108.37;;;34.57;;
7831;SDS011;3961;42.058;25.586;2022-11-15T02:51:39;156.23;;;35.87;;
7831;SDS011;3961;42.058;25.586;2022-11-15T02:54:06;157.07;;;35.33;;
7831;SDS011;3961;42.058;25.586;2022-11-15T02:56:32;101.40;;;35.60;;
7831;SDS011;3961;42.058;25.586;2022-11-15T02:59:11;97.10;;;35.17;;
7831;SDS011;3961;42.058;25.586;2022-11-15T03:01:55;94.33;;;34.30;;
7831;SDS011;3961;42.058;25.586;2022-11-15T03:06:55;119.43;;;34.87;;
7831;SDS011;3961;42.058;25.586;2022-11-15T03:09:32;204.90;;;34.30;;
7831;SDS011;3961;42.058;25.586;2022-11-15T03:17:55;178.40;;;34.00;;
7831;SDS011;3961;42.058;25.586;2022-11-15T03:20:36;137.20;;;32.00;;
7831;SDS011;3961;42.058;25.586;2022-11-15T03:23:06;108.27;;;33.27;;
7831;SDS011;3961;42.058;25.586;2022-11-15T03:25:36;89.77;;;31.63;;
7831;SDS011;3961;42.058;25.586;2022-11-15T03:28:06;95.97;;;31.10;;
7831;SDS011;3961;42.058;25.586;2022-11-15T03:30:35;116.83;;;32.93;;
7831;SDS011;3961;42.058;25.586;2022-11-15T03:33:04;111.10;;;32.33;;
7831;SDS011;3961;42.058;25.586;2022-11-15T03:35:32;120.37;;;31.80;;
7831;SDS011;3961;42.058;25.586;2022-11-15T03:38:06;276.23;;;35.33;;
7831;SDS011;3961;42.058;25.586;2022-11-15T03:40:35;131.33;;;33.37;;
7831;SDS011;3961;42.058;25.586;2022-11-15T03:43:29;142.40;;;32.20;;
7831;SDS011;3961;42.058;25.586;2022-11-15T03:46:01;109.20;;;30.00;;
7831;SDS011;3961;42.058;25.586;2022-11-15T03:48:34;111.90;;;30.57;;
7831;SDS011;3961;42.058;25.586;2022-11-15T03:51:13;94.50;;;28.90;;
7831;SDS011;3961;42.058;25.586;2022-11-15T03:53:40;119.60;;;29.47;;
7831;SDS011;3961;42.058;25.586;2022-11-15T03:56:06;130.90;;;29.50;;
7831;SDS011;3961;42.058;25.586;2022-11-15T03:58:32;83.93;;;29.37;;
7831;SDS011;3961;42.058;25.586;2022-11-15T04:00:57;91.40;;;29.63;;
7831;SDS011;3961;42.058;25.586;2022-11-15T04:03:24;119.97;;;29.27;;
7831;SDS011;3961;42.058;25.586;2022-11-15T04:05:50;82.87;;;27.83;;
7831;SDS011;3961;42.058;25.586;2022-11-15T04:08:15;90.50;;;29.13;;
7831;SDS011;3961;42.058;25.586;2022-11-15T04:10:41;137.90;;;29.93;;
7831;SDS011;3961;42.058;25.586;2022-11-15T04:13:06;92.37;;;27.97;;
7831;SDS011;3961;42.058;25.586;2022-11-15T04:15:32;114.60;;;27.97;;
7831;SDS011;3961;42.058;25.586;2022-11-15T04:17:58;167.43;;;31.20;;
7831;SDS011;3961;42.058;25.586;2022-11-15T04:20:25;100.97;;;27.40;;
7831;SDS011;3961;42.058;25.586;2022-11-15T04:23:11;193.67;;;29.00;;
7831;SDS011;3961;42.058;25.586;2022-11-15T04:26:00;123.00;;;29.73;;
7831;SDS011;3961;42.058;25.586;2022-11-15T04:28:27;293.47;;;34.00;;
7831;SDS011;3961;42.058;25.586;2022-11-15T04:30:53;145.43;;;31.57;;
7831;SDS011;3961;42.058;25.586;2022-11-15T04:33:19;125.97;;;32.33;;
7831;SDS011;3961;42.058;25.586;2022-11-15T04:35:46;122.47;;;33.50;;
7831;SDS011;3961;42.058;25.586;2022-11-15T04:38:31;113.53;;;34.30;;
7831;SDS011;3961;42.058;25.586;2022-11-15T04:40:57;181.17;;;33.63;;
7831;SDS011;3961;42.058;25.586;2022-11-15T04:43:22;313.43;;;35.17;;
7831;SDS011;3961;42.058;25.586;2022-11-15T04:45:48;121.40;;;30.83;;
7831;SDS011;3961;42.058;25.586;2022-11-15T04:48:13;156.27;;;32.23;;
7831;SDS011;3961;42.058;25.586;2022-11-15T04:50:39;92.57;;;30.07;;
7831;SDS011;3961;42.058;25.586;2022-11-15T04:53:04;125.23;;;31.40;;
7831;SDS011;3961;42.058;25.586;2022-11-15T04:55:29;112.87;;;31.07;;
7831;SDS011;3961;42.058;25.586;2022-11-15T04:57:58;136.00;;;31.23;;
7831;SDS011;3961;42.058;25.586;2022-11-15T05:00:25;147.30;;;30.87;;
7831;SDS011;3961;42.058;25.586;2022-11-15T05:02:51;346.37;;;35.50;;
7831;SDS011;3961;42.058;25.586;2022-11-15T05:05:35;230.63;;;33.60;;
7831;SDS011;3961;42.058;25.586;2022-11-15T05:08:01;99.63;;;30.53;;
7831;SDS011;3961;42.058;25.586;2022-11-15T05:10:26;130.17;;;31.20;;
7831;SDS011;3961;42.058;25.586;2022-11-15T05:12:52;114.83;;;30.63;;
7831;SDS011;3961;42.058;25.586;2022-11-15T05:15:17;96.30;;;28.67;;
7831;SDS011;3961;42.058;25.586;2022-11-15T05:17:42;102.00;;;29.77;;
7831;SDS011;3961;42.058;25.586;2022-11-15T05:20:08;122.70;;;30.03;;
7831;SDS011;3961;42.058;25.586;2022-11-15T05:22:34;96.17;;;29.07;;
7831;SDS011;3961;42.058;25.586;2022-11-15T05:25:00;103.00;;;30.47;;
7831;SDS011;3961;42.058;25.586;2022-11-15T05:27:25;108.47;;;32.27;;
7831;SDS011;3961;42.058;25.586;2022-11-15T05:29:50;100.13;;;29.47;;
7831;SDS011;3961;42.058;25.586;2022-11-15T05:32:16;90.33;;;31.83;;
7831;SDS011;3961;42.058;25.586;2022-11-15T05:34:43;89.73;;;30.27;;
7831;SDS011;3961;42.058;25.586;2022-11-15T05:37:08;99.97;;;31.10;;
7831;SDS011;3961;42.058;25.586;2022-11-15T05:39:34;87.60;;;30.07;;
7831;SDS011;3961;42.058;25.586;2022-11-15T05:42:01;97.23;;;31.13;;
7831;SDS011;3961;42.058;25.586;2022-11-15T05:44:33;87.00;;;29.13;;
7831;SDS011;3961;42.058;25.586;2022-11-15T05:47:01;92.87;;;29.57;;
7831;SDS011;3961;42.058;25.586;2022-11-15T05:49:30;93.73;;;30.63;;
7831;SDS011;3961;42.058;25.586;2022-11-15T05:51:59;88.67;;;29.93;;
7831;SDS011;3961;42.058;25.586;2022-11-15T05:54:24;89.93;;;28.70;;
7831;SDS011;3961;42.058;25.586;2022-11-15T05:56:51;82.37;;;28.40;;
7831;SDS011;3961;42.058;25.586;2022-11-15T05:59:17;87.10;;;29.90;;
7831;SDS011;3961;42.058;25.586;2022-11-15T06:01:43;85.73;;;30.03;;
7831;SDS011;3961;42.058;25.586;2022-11-15T06:04:08;87.10;;;31.10;;
7831;SDS011;3961;42.058;25.586;2022-11-15T06:06:34;84.13;;;30.13;;
7831;SDS011;3961;42.058;25.586;2022-11-15T06:08:59;85.23;;;29.57;;
7831;SDS011;3961;42.058;25.586;2022-11-15T06:11:25;91.83;;;30.63;;
7831;SDS011;3961;42.058;25.586;2022-11-15T06:13:50;88.30;;;31.37;;
7831;SDS011;3961;42.058;25.586;2022-11-15T06:16:16;87.60;;;29.27;;
7831;SDS011;3961;42.058;25.586;2022-11-15T06:18:41;95.03;;;30.83;;
7831;SDS011;3961;42.058;25.586;2022-11-15T06:21:07;95.30;;;30.20;;
7831;SDS011;3961;42.058;25.586;2022-11-15T06:23:33;97.27;;;31.40;;
7831;SDS011;3961;42.058;25.586;2022-11-15T06:26:00;91.27;;;31.27;;
7831;SDS011;3961;42.058;25.586;2022-11-15T06:28:33;100.00;;;32.57;;
7831;SDS011;3961;42.058;25.586;2022-11-15T06:31:02;103.30;;;32.23;;
7831;SDS011;3961;42.058;25.586;2022-11-15T06:33:28;102.07;;;31.50;;
7831;SDS011;3961;42.058;25.586;2022-11-15T06:35:54;96.27;;;31.27;;
7831;SDS011;3961;42.058;25.586;2022-11-15T06:38:20;107.93;;;33.77;;
7831;SDS011;3961;42.058;25.586;2022-11-15T06:40:45;101.27;;;32.23;;
7831;SDS011;3961;42.058;25.586;2022-11-15T06:43:11;95.97;;;31.90;;
7831;SDS011;3961;42.058;25.586;2022-11-15T06:45:36;104.47;;;32.73;;
7831;SDS011;3961;42.058;25.586;2022-11-15T06:48:02;97.50;;;33.50;;
7831;SDS011;3961;42.058;25.586;2022-11-15T06:50:27;101.90;;;32.60;;
7831;SDS011;3961;42.058;25.586;2022-11-15T06:52:53;94.63;;;33.13;;
7831;SDS011;3961;42.058;25.586;2022-11-15T06:55:19;93.17;;;32.03;;
7831;SDS011;3961;42.058;25.586;2022-11-15T06:57:49;98.23;;;35.27;;
7831;SDS011;3961;42.058;25.586;2022-11-15T07:00:16;113.57;;;34.20;;
7831;SDS011;3961;42.058;25.586;2022-11-15T07:02:44;89.07;;;31.73;;
7831;SDS011;3961;42.058;25.586;2022-11-15T07:05:09;150.03;;;65.73;;
7831;SDS011;3961;42.058;25.586;2022-11-15T07:07:36;214.83;;;134.20;;
7831;SDS011;3961;42.058;25.586;2022-11-15T07:10:01;85.17;;;33.27;;
7831;SDS011;3961;42.058;25.586;2022-11-15T07:12:27;82.53;;;30.10;;
7831;SDS011;3961;42.058;25.586;2022-11-15T07:14:52;84.87;;;31.60;;
7831;SDS011;3961;42.058;25.586;2022-11-15T07:17:18;90.10;;;36.07;;
7831;SDS011;3961;42.058;25.586;2022-11-15T07:19:43;120.70;;;53.43;;
7831;SDS011;3961;42.058;25.586;2022-11-15T07:22:09;105.03;;;44.70;;
7831;SDS011;3961;42.058;25.586;2022-11-15T07:24:34;75.20;;;31.73;;
7831;SDS011;3961;42.058;25.586;2022-11-15T07:27:00;80.23;;;31.83;;
7831;SDS011;3961;42.058;25.586;2022-11-15T07:29:25;81.20;;;32.50;;
7831;SDS011;3961;42.058;25.586;2022-11-15T07:31:52;67.80;;;28.10;;
7831;SDS011;3961;42.058;25.586;2022-11-15T07:34:18;76.70;;;30.93;;
7831;SDS011;3961;42.058;25.586;2022-11-15T07:36:43;89.43;;;31.13;;
7831;SDS011;3961;42.058;25.586;2022-11-15T07:39:09;80.30;;;31.03;;
7831;SDS011;3961;42.058;25.586;2022-11-15T07:41:34;85.37;;;32.80;;
7831;SDS011;3961;42.058;25.586;2022-11-15T07:44:00;83.43;;;32.03;;
7831;SDS011;3961;42.058;25.586;2022-11-15T07:46:26;77.10;;;33.33;;
7831;SDS011;3961;42.058;25.586;2022-11-15T07:48:52;73.87;;;31.80;;
7831;SDS011;3961;42.058;25.586;2022-11-15T07:51:17;86.53;;;33.03;;
7831;SDS011;3961;42.058;25.586;2022-11-15T07:53:43;94.47;;;33.80;;
7831;SDS011;3961;42.058;25.586;2022-11-15T07:56:09;70.13;;;28.93;;
7831;SDS011;3961;42.058;25.586;2022-11-15T07:58:36;80.17;;;34.70;;
7831;SDS011;3961;42.058;25.586;2022-11-15T08:01:05;88.40;;;33.13;;
7831;SDS011;3961;42.058;25.586;2022-11-15T08:03:32;73.40;;;31.23;;
7831;SDS011;3961;42.058;25.586;2022-11-15T08:05:58;82.13;;;32.70;;
7831;SDS011;3961;42.058;25.586;2022-11-15T08:08:23;82.30;;;34.33;;
7831;SDS011;3961;42.058;25.586;2022-11-15T08:10:49;87.73;;;34.00;;
7831;SDS011;3961;42.058;25.586;2022-11-15T08:13:15;59.63;;;26.87;;
7831;SDS011;3961;42.058;25.586;2022-11-15T08:15:41;65.70;;;27.20;;
7831;SDS011;3961;42.058;25.586;2022-11-15T08:18:14;74.63;;;30.13;;
7831;SDS011;3961;42.058;25.586;2022-11-15T08:20:41;63.50;;;31.67;;
7831;SDS011;3961;42.058;25.586;2022-11-15T08:23:08;72.60;;;31.27;;
7831;SDS011;3961;42.058;25.586;2022-11-15T08:25:36;66.60;;;31.50;;
7831;SDS011;3961;42.058;25.586;2022-11-15T08:28:03;69.30;;;30.07;;
7831;SDS011;3961;42.058;25.586;2022-11-15T08:30:30;65.73;;;30.30;;
7831;SDS011;3961;42.058;25.586;2022-11-15T08:33:01;69.53;;;31.40;;
7831;SDS011;3961;42.058;25.586;2022-11-15T08:35:27;74.77;;;31.33;;
7831;SDS011;3961;42.058;25.586;2022-11-15T08:37:53;75.27;;;32.00;;
7831;SDS011;3961;42.058;25.586;2022-11-15T08:40:19;68.97;;;32.47;;
7831;SDS011;3961;42.058;25.586;2022-11-15T08:42:48;70.50;;;31.90;;
7831;SDS011;3961;42.058;25.586;2022-11-15T08:45:14;64.57;;;31.53;;
7831;SDS011;3961;42.058;25.586;2022-11-15T08:47:40;63.70;;;30.30;;
7831;SDS011;3961;42.058;25.586;2022-11-15T08:50:06;69.27;;;30.50;;
7831;SDS011;3961;42.058;25.586;2022-11-15T08:52:32;69.40;;;31.77;;
7831;SDS011;3961;42.058;25.586;2022-11-15T08:54:57;68.60;;;30.37;;
7831;SDS011;3961;42.058;25.586;2022-11-15T08:57:23;69.13;;;32.00;;
7831;SDS011;3961;42.058;25.586;2022-11-15T08:59:49;57.77;;;29.77;;
7831;SDS011;3961;42.058;25.586;2022-11-15T09:02:14;61.70;;;28.93;;
7831;SDS011;3961;42.058;25.586;2022-11-15T09:04:41;63.03;;;31.27;;
7831;SDS011;3961;42.058;25.586;2022-11-15T09:07:07;58.87;;;30.17;;
7831;SDS011;3961;42.058;25.586;2022-11-15T09:09:34;66.20;;;30.87;;
7831;SDS011;3961;42.058;25.586;2022-11-15T09:11:59;69.07;;;31.23;;
7831;SDS011;3961;42.058;25.586;2022-11-15T09:14:25;74.87;;;32.83;;
7831;SDS011;3961;42.058;25.586;2022-11-15T09:16:51;72.17;;;31.17;;
7831;SDS011;3961;42.058;25.586;2022-11-15T09:19:16;62.27;;;32.37;;
7831;SDS011;3961;42.058;25.586;2022-11-15T09:21:41;67.10;;;33.10;;
7831;SDS011;3961;42.058;25.586;2022-11-15T09:24:07;84.60;;;34.40;;
7831;SDS011;3961;42.058;25.586;2022-11-15T09:26:33;68.83;;;31.33;;
7831;SDS011;3961;42.058;25.586;2022-11-15T09:28:59;62.47;;;31.33;;
7831;SDS011;3961;42.058;25.586;2022-11-15T09:31:26;72.07;;;32.63;;
7831;SDS011;3961;42.058;25.586;2022-11-15T09:33:52;73.33;;;31.70;;
7831;SDS011;3961;42.058;25.586;2022-11-15T09:36:17;66.40;;;30.67;;
7831;SDS011;3961;42.058;25.586;2022-11-15T09:38:43;66.17;;;31.47;;
7831;SDS011;3961;42.058;25.586;2022-11-15T09:43:40;70.20;;;32.83;;
7831;SDS011;3961;42.058;25.586;2022-11-15T09:51:08;74.93;;;33.13;;
7831;SDS011;3961;42.058;25.586;2022-11-15T09:53:45;53.70;;;27.87;;
7831;SDS011;3961;42.058;25.586;2022-11-15T09:56:18;56.40;;;29.10;;
7831;SDS011;3961;42.058;25.586;2022-11-15T10:04:23;56.37;;;28.70;;
7831;SDS011;3961;42.058;25.586;2022-11-15T10:06:59;63.10;;;30.43;;
7831;SDS011;3961;42.058;25.586;2022-11-15T10:09:33;62.20;;;30.80;;
7831;SDS011;3961;42.058;25.586;2022-11-15T10:12:08;61.13;;;31.73;;
7831;SDS011;3961;42.058;25.586;2022-11-15T10:14:36;68.50;;;33.77;;
7831;SDS011;3961;42.058;25.586;2022-11-15T10:19:34;59.57;;;30.47;;
7831;SDS011;3961;42.058;25.586;2022-11-15T10:22:27;57.97;;;30.57;;
7831;SDS011;3961;42.058;25.586;2022-11-15T10:27:42;50.13;;;27.87;;
7831;SDS011;3961;42.058;25.586;2022-11-15T10:30:14;59.53;;;29.13;;
7831;SDS011;3961;42.058;25.586;2022-11-15T10:32:42;53.33;;;29.97;;
7831;SDS011;3961;42.058;25.586;2022-11-15T10:35:16;50.37;;;28.93;;
7831;SDS011;3961;42.058;25.586;2022-11-15T10:37:46;58.47;;;32.37;;
7831;SDS011;3961;42.058;25.586;2022-11-15T10:40:20;50.93;;;29.80;;
7831;SDS011;3961;42.058;25.586;2022-11-15T10:42:47;61.40;;;31.23;;
7831;SDS011;3961;42.058;25.586;2022-11-15T10:45:28;62.47;;;33.00;;
7831;SDS011;3961;42.058;25.586;2022-11-15T10:48:19;56.37;;;30.27;;
7831;SDS011;3961;42.058;25.586;2022-11-15T10:50:44;58.63;;;29.40;;
7831;SDS011;3961;42.058;25.586;2022-11-15T10:53:33;56.80;;;30.93;;
7831;SDS011;3961;42.058;25.586;2022-11-15T10:56:11;63.37;;;32.23;;
7831;SDS011;3961;42.058;25.586;2022-11-15T11:01:12;47.07;;;25.93;;
7831;SDS011;3961;42.058;25.586;2022-11-15T11:03:40;50.03;;;27.57;;
7831;SDS011;3961;42.058;25.586;2022-11-15T11:06:09;47.00;;;28.77;;
7831;SDS011;3961;42.058;25.586;2022-11-15T11:08:40;55.63;;;29.63;;
7831;SDS011;3961;42.058;25.586;2022-11-15T11:11:17;65.70;;;30.27;;
7831;SDS011;3961;42.058;25.586;2022-11-15T11:13:43;51.67;;;29.70;;
7831;SDS011;3961;42.058;25.586;2022-11-15T11:21:26;58.37;;;30.77;;
7831;SDS011;3961;42.058;25.586;2022-11-15T11:26:42;61.50;;;33.90;;
7831;SDS011;3961;42.058;25.586;2022-11-15T11:29:33;61.00;;;32.87;;
7831;SDS011;3961;42.058;25.586;2022-11-15T11:51:23;69.47;;;38.30;;
7831;SDS011;3961;42.058;25.586;2022-11-15T11:56:56;72.27;;;38.83;;
7831;SDS011;3961;42.058;25.586;2022-11-15T12:02:16;75.27;;;41.80;;
7831;SDS011;3961;42.058;25.586;2022-11-15T12:04:50;77.97;;;43.53;;
7831;SDS011;3961;42.058;25.586;2022-11-15T12:07:23;73.83;;;42.10;;
7831;SDS011;3961;42.058;25.586;2022-11-15T12:09:58;101.73;;;68.03;;
7831;SDS011;3961;42.058;25.586;2022-11-15T12:15:17;89.07;;;55.33;;
7831;SDS011;3961;42.058;25.586;2022-11-15T12:17:46;76.50;;;44.27;;
7831;SDS011;3961;42.058;25.586;2022-11-15T12:20:17;59.93;;;37.10;;
7831;SDS011;3961;42.058;25.586;2022-11-15T12:26:05;64.57;;;37.30;;
7831;SDS011;3961;42.058;25.586;2022-11-15T12:28:37;75.93;;;44.60;;
7831;SDS011;3961;42.058;25.586;2022-11-15T12:31:17;79.80;;;46.13;;
7831;SDS011;3961;42.058;25.586;2022-11-15T12:36:44;72.50;;;43.50;;
7831;SDS011;3961;42.058;25.586;2022-11-15T12:39:11;83.67;;;47.17;;
7831;SDS011;3961;42.058;25.586;2022-11-15T12:41:38;91.53;;;49.30;;
7831;SDS011;3961;42.058;25.586;2022-11-15T12:44:09;82.27;;;46.67;;
7831;SDS011;3961;42.058;25.586;2022-11-15T13:02:38;56.77;;;36.20;;
7831;SDS011;3961;42.058;25.586;2022-11-15T13:17:42;63.50;;;37.17;;
7831;SDS011;3961;42.058;25.586;2022-11-15T13:23:07;61.87;;;39.10;;
7831;SDS011;3961;42.058;25.586;2022-11-15T13:35:51;60.00;;;36.87;;
7831;SDS011;3961;42.058;25.586;2022-11-15T13:38:27;65.60;;;37.90;;
7831;SDS011;3961;42.058;25.586;2022-11-15T13:40:58;70.13;;;40.43;;
7831;SDS011;3961;42.058;25.586;2022-11-15T13:43:35;69.93;;;39.30;;
7831;SDS011;3961;42.058;25.586;2022-11-15T13:48:43;70.97;;;38.87;;
7831;SDS011;3961;42.058;25.586;2022-11-15T13:54:13;64.83;;;36.90;;
7831;SDS011;3961;42.058;25.586;2022-11-15T13:59:34;87.27;;;44.83;;
7831;SDS011;3961;42.058;25.586;2022-11-15T14:02:15;85.20;;;46.37;;
7831;SDS011;3961;42.058;25.586;2022-11-15T14:04:48;82.00;;;44.33;;
7831;SDS011;3961;42.058;25.586;2022-11-15T14:07:20;86.83;;;45.33;;
7831;SDS011;3961;42.058;25.586;2022-11-15T14:09:48;95.33;;;45.07;;
7831;SDS011;3961;42.058;25.586;2022-11-15T14:14:50;77.83;;;42.07;;
7831;SDS011;3961;42.058;25.586;2022-11-15T14:17:36;82.87;;;42.90;;
7831;SDS011;3961;42.058;25.586;2022-11-15T14:20:18;79.60;;;44.10;;
7831;SDS011;3961;42.058;25.586;2022-11-15T14:22:55;91.37;;;44.23;;
7831;SDS011;3961;42.058;25.586;2022-11-15T14:25:23;87.60;;;44.53;;
7831;SDS011;3961;42.058;25.586;2022-11-15T14:30:42;75.63;;;41.60;;
7831;SDS011;3961;42.058;25.586;2022-11-15T14:33:17;72.60;;;41.33;;
7831;SDS011;3961;42.058;25.586;2022-11-15T14:35:45;71.30;;;41.17;;
7831;SDS011;3961;42.058;25.586;2022-11-15T14:38:11;97.23;;;42.33;;
7831;SDS011;3961;42.058;25.586;2022-11-15T14:40:36;76.40;;;41.77;;
7831;SDS011;3961;42.058;25.586;2022-11-15T14:43:02;88.63;;;44.33;;
7831;SDS011;3961;42.058;25.586;2022-11-15T14:45:28;73.10;;;40.20;;
7831;SDS011;3961;42.058;25.586;2022-11-15T14:47:53;69.73;;;39.70;;
7831;SDS011;3961;42.058;25.586;2022-11-15T14:50:20;70.87;;;39.97;;
7831;SDS011;3961;42.058;25.586;2022-11-15T14:52:47;75.97;;;42.33;;
7831;SDS011;3961;42.058;25.586;2022-11-15T14:55:23;77.43;;;40.53;;
7831;SDS011;3961;42.058;25.586;2022-11-15T14:57:54;74.47;;;43.80;;
7831;SDS011;3961;42.058;25.586;2022-11-15T15:00:21;94.73;;;54.07;;
7831;SDS011;3961;42.058;25.586;2022-11-15T15:02:47;86.60;;;48.93;;
7831;SDS011;3961;42.058;25.586;2022-11-15T15:07:46;87.87;;;49.70;;
7831;SDS011;3961;42.058;25.586;2022-11-15T15:10:13;89.73;;;48.37;;
7831;SDS011;3961;42.058;25.586;2022-11-15T15:12:39;83.43;;;45.77;;
7831;SDS011;3961;42.058;25.586;2022-11-15T15:15:06;74.17;;;43.83;;
7831;SDS011;3961;42.058;25.586;2022-11-15T15:17:38;72.80;;;42.07;;
7831;SDS011;3961;42.058;25.586;2022-11-15T15:20:03;76.73;;;43.67;;
7831;SDS011;3961;42.058;25.586;2022-11-15T15:22:29;78.50;;;44.43;;
7831;SDS011;3961;42.058;25.586;2022-11-15T15:24:55;83.37;;;44.57;;
7831;SDS011;3961;42.058;25.586;2022-11-15T15:27:21;82.30;;;44.93;;
7831;SDS011;3961;42.058;25.586;2022-11-15T15:29:46;80.10;;;44.70;;
7831;SDS011;3961;42.058;25.586;2022-11-15T15:32:12;73.37;;;41.53;;
7831;SDS011;3961;42.058;25.586;2022-11-15T15:34:38;77.80;;;40.50;;
7831;SDS011;3961;42.058;25.586;2022-11-15T15:37:21;80.83;;;43.73;;
7831;SDS011;3961;42.058;25.586;2022-11-15T15:39:50;90.97;;;46.47;;
7831;SDS011;3961;42.058;25.586;2022-11-15T15:42:19;85.07;;;46.17;;
7831;SDS011;3961;42.058;25.586;2022-11-15T15:44:45;80.50;;;42.97;;
7831;SDS011;3961;42.058;25.586;2022-11-15T15:47:22;96.23;;;47.87;;
7831;SDS011;3961;42.058;25.586;2022-11-15T15:49:48;94.13;;;50.50;;
7831;SDS011;3961;42.058;25.586;2022-11-15T15:52:15;100.07;;;49.23;;
7831;SDS011;3961;42.058;25.586;2022-11-15T15:54:41;104.73;;;57.60;;
7831;SDS011;3961;42.058;25.586;2022-11-15T15:57:07;130.63;;;68.47;;
7831;SDS011;3961;42.058;25.586;2022-11-15T15:59:36;117.57;;;66.07;;
7831;SDS011;3961;42.058;25.586;2022-11-15T16:02:02;111.90;;;60.07;;
7831;SDS011;3961;42.058;25.586;2022-11-15T16:04:28;109.87;;;58.60;;
7831;SDS011;3961;42.058;25.586;2022-11-15T16:06:57;112.27;;;58.40;;
7831;SDS011;3961;42.058;25.586;2022-11-15T16:09:24;107.20;;;57.53;;
7831;SDS011;3961;42.058;25.586;2022-11-15T16:12:08;110.90;;;57.20;;
7831;SDS011;3961;42.058;25.586;2022-11-15T16:14:34;111.43;;;59.40;;
7831;SDS011;3961;42.058;25.586;2022-11-15T16:16:59;114.03;;;62.30;;
7831;SDS011;3961;42.058;25.586;2022-11-15T16:19:25;112.67;;;63.70;;
7831;SDS011;3961;42.058;25.586;2022-11-15T16:21:51;115.83;;;61.37;;
7831;SDS011;3961;42.058;25.586;2022-11-15T16:24:20;125.27;;;62.37;;
7831;SDS011;3961;42.058;25.586;2022-11-15T16:26:46;129.57;;;67.57;;
7831;SDS011;3961;42.058;25.586;2022-11-15T16:29:13;132.07;;;74.63;;
7831;SDS011;3961;42.058;25.586;2022-11-15T16:31:39;138.97;;;76.77;;
7831;SDS011;3961;42.058;25.586;2022-11-15T16:34:04;146.30;;;79.17;;
7831;SDS011;3961;42.058;25.586;2022-11-15T16:36:33;128.87;;;69.17;;
7831;SDS011;3961;42.058;25.586;2022-11-15T16:38:59;129.37;;;67.37;;
7831;SDS011;3961;42.058;25.586;2022-11-15T16:41:25;140.77;;;71.40;;
7831;SDS011;3961;42.058;25.586;2022-11-15T16:43:51;148.03;;;87.47;;
7831;SDS011;3961;42.058;25.586;2022-11-15T16:46:18;168.50;;;96.67;;
7831;SDS011;3961;42.058;25.586;2022-11-15T16:48:45;128.60;;;71.53;;
7831;SDS011;3961;42.058;25.586;2022-11-15T16:51:12;104.03;;;58.03;;
7831;SDS011;3961;42.058;25.586;2022-11-15T16:53:38;111.27;;;57.10;;
7831;SDS011;3961;42.058;25.586;2022-11-15T16:56:08;102.17;;;57.40;;
7831;SDS011;3961;42.058;25.586;2022-11-15T16:58:48;113.27;;;55.70;;
7831;SDS011;3961;42.058;25.586;2022-11-15T17:01:18;117.57;;;59.43;;
7831;SDS011;3961;42.058;25.586;2022-11-15T17:03:48;108.57;;;55.60;;
7831;SDS011;3961;42.058;25.586;2022-11-15T17:06:13;114.60;;;56.13;;
7831;SDS011;3961;42.058;25.586;2022-11-15T17:08:40;107.17;;;57.23;;
7831;SDS011;3961;42.058;25.586;2022-11-15T17:11:08;110.97;;;56.40;;